Aviation Digital Data Service (ADDS)

Output produced by METARs form (2220 UTC 10 December 2016)
found at http://aviationweather.gov/adds/metars/
 
KPHL 102100Z 1021/1124 29013G20KT P6SM BKN050 
     FM102300 29010KT P6SM SCT050 
     FM110800 29004KT P6SM OVC120 
     FM111400 VRB04KT P6SM OVC050